Aviation Digital Data Service (ADDS)

Output produced by METARs form (0238 UTC 22 July 2017)
found at http://www.aviationweather.gov/adds/metars/
 
FTTJ 220200Z 00000KT CAVOK 25/22 Q1010 NOSIG
TAF FTTJ 212300Z 2200/2306 26006KT CAVOK 
     BECMG 2207/2209 20010KT 
     PROB30 
     TEMPO 2215/2223 TS
       
FTTA 220200Z 00000KT CAVOK 23/22 Q1012